createdAt,value
2017-08-23T00:00:19.527Z,62.00
2017-08-23T00:02:47.058Z,62.00
2017-08-23T00:05:14.587Z,62.20
2017-08-23T00:07:42.152Z,62.30
2017-08-23T00:10:09.720Z,62.50
2017-08-23T00:12:37.641Z,62.50
2017-08-23T00:15:05.164Z,62.60
2017-08-23T00:17:32.692Z,62.80
2017-08-23T00:20:00.266Z,62.80
2017-08-23T00:22:27.778Z,63.00
2017-08-23T00:24:55.630Z,63.20
2017-08-23T00:27:23.162Z,63.30
2017-08-23T00:29:50.706Z,63.50
2017-08-23T00:32:18.315Z,63.60
2017-08-23T00:34:45.846Z,63.90
2017-08-23T00:37:13.774Z,63.90
2017-08-23T00:39:41.297Z,64.10
2017-08-23T00:42:08.818Z,64.30
2017-08-23T00:44:36.411Z,64.50
2017-08-23T00:47:03.953Z,64.70
2017-08-23T00:49:31.971Z,64.90
2017-08-23T00:51:59.492Z,65.00
2017-08-23T00:54:27.096Z,65.10
2017-08-23T00:56:54.836Z,65.30
2017-08-23T00:59:22.361Z,65.40
2017-08-23T01:01:50.191Z,65.60
2017-08-23T01:04:17.710Z,65.80
2017-08-23T01:06:45.241Z,65.80
2017-08-23T01:12:06.360Z,66.10
2017-08-23T01:14:34.175Z,66.00
2017-08-23T01:17:01.710Z,66.90
2017-08-23T01:19:29.249Z,66.30
2017-08-23T01:21:56.806Z,66.30
2017-08-23T01:24:24.341Z,66.40
2017-08-23T01:26:52.287Z,66.50
2017-08-23T01:29:19.849Z,66.40
2017-08-23T01:31:47.360Z,66.30
2017-08-23T01:34:14.943Z,66.30
2017-08-23T01:36:42.480Z,66.50
2017-08-23T01:39:10.306Z,66.50
2017-08-23T01:41:37.837Z,66.60
2017-08-23T01:44:05.384Z,66.70
2017-08-23T01:46:32.968Z,66.80
2017-08-23T01:49:00.487Z,66.90
2017-08-23T01:51:28.422Z,66.80
2017-08-23T01:53:55.949Z,66.90
2017-08-23T01:56:23.478Z,67.00
2017-08-23T01:58:51.041Z,67.10
2017-08-23T02:01:18.583Z,67.10
2017-08-23T02:03:46.410Z,67.00
2017-08-23T02:06:13.951Z,67.00
2017-08-23T02:11:26.655Z,67.20
2017-08-23T02:13:54.214Z,67.20
2017-08-23T02:16:22.144Z,68.10
2017-08-23T02:18:49.685Z,67.50
2017-08-23T02:21:17.224Z,67.60
2017-08-23T02:23:44.783Z,67.60
2017-08-23T02:26:19.966Z,67.60
2017-08-23T02:28:47.819Z,67.80
2017-08-23T02:31:15.346Z,67.90
2017-08-23T02:33:42.901Z,67.80
2017-08-23T02:36:10.465Z,67.80
2017-08-23T02:38:37.975Z,67.80
2017-08-23T02:41:05.829Z,67.90
2017-08-23T02:43:33.343Z,67.90
2017-08-23T02:46:00.874Z,68.00
2017-08-23T02:48:28.463Z,68.00
2017-08-23T02:50:55.996Z,68.10
2017-08-23T02:53:23.856Z,68.10
2017-08-23T02:55:51.382Z,68.10
2017-08-23T02:58:18.950Z,68.20
2017-08-23T03:00:46.501Z,68.20
2017-08-23T03:03:14.045Z,68.30
2017-08-23T03:05:41.963Z,68.40
2017-08-23T03:08:09.493Z,68.40
2017-08-23T03:10:37.034Z,68.50
2017-08-23T03:13:05.046Z,68.60
2017-08-23T03:15:32.567Z,68.70
2017-08-23T03:18:00.576Z,68.80
2017-08-23T03:20:28.115Z,68.80
2017-08-23T03:22:55.626Z,68.80
2017-08-23T03:25:23.195Z,68.90
2017-08-23T03:27:50.707Z,69.00
2017-08-23T03:30:18.603Z,69.20
2017-08-23T03:32:46.117Z,69.30
2017-08-23T03:35:13.637Z,69.30
2017-08-23T03:37:41.186Z,69.30
2017-08-23T03:40:08.719Z,69.50
2017-08-23T03:42:36.586Z,69.40
2017-08-23T03:45:04.135Z,69.50
2017-08-23T03:47:31.648Z,69.50
2017-08-23T03:49:59.207Z,69.50
2017-08-23T03:52:32.602Z,69.50
2017-08-23T03:55:00.442Z,69.60
2017-08-23T03:57:27.957Z,69.60
2017-08-23T03:59:55.519Z,69.60
2017-08-23T04:02:23.102Z,69.70
2017-08-23T04:04:50.615Z,69.80
2017-08-23T04:07:18.432Z,69.80
2017-08-23T04:09:45.966Z,69.90
2017-08-23T04:12:13.495Z,69.90
2017-08-23T04:14:41.041Z,70.00
2017-08-23T04:17:08.584Z,70.10
2017-08-23T04:19:36.439Z,70.10
2017-08-23T04:22:04.102Z,70.10
2017-08-23T04:24:31.676Z,70.10
2017-08-23T04:26:59.239Z,70.10
2017-08-23T04:29:26.765Z,70.10
2017-08-23T04:31:54.672Z,70.10
2017-08-23T04:34:22.194Z,70.10
2017-08-23T04:36:49.734Z,70.10
2017-08-23T04:39:17.317Z,70.20
2017-08-23T04:41:44.868Z,70.20
2017-08-23T04:44:13.613Z,70.30
2017-08-23T04:46:41.145Z,70.20
2017-08-23T04:49:08.699Z,70.30
2017-08-23T04:51:36.252Z,70.40
2017-08-23T04:54:03.811Z,70.50
2017-08-23T04:56:31.662Z,70.60
2017-08-23T04:58:59.222Z,70.60
2017-08-23T05:01:37.280Z,70.60
2017-08-23T05:04:04.838Z,70.50
2017-08-23T05:06:32.373Z,70.50
2017-08-23T05:08:59.954Z,70.70
2017-08-23T05:11:27.482Z,70.70
2017-08-23T05:13:55.385Z,70.70
2017-08-23T05:16:22.922Z,70.70
2017-08-23T05:18:50.444Z,70.70
2017-08-23T05:21:18.014Z,70.70
2017-08-23T05:23:45.585Z,70.70
2017-08-23T05:26:13.434Z,70.80
2017-08-23T05:28:40.956Z,70.70
2017-08-23T05:31:08.485Z,70.70
2017-08-23T05:33:36.055Z,70.80
2017-08-23T05:36:03.602Z,70.70
2017-08-23T05:38:31.515Z,70.60
2017-08-23T05:40:59.081Z,70.40
2017-08-23T05:43:26.631Z,70.10
2017-08-23T05:45:54.189Z,70.10
2017-08-23T05:48:21.713Z,70.00
2017-08-23T05:50:49.589Z,70.00
2017-08-23T05:53:17.130Z,69.80
2017-08-23T05:55:46.613Z,69.90
2017-08-23T05:58:15.190Z,69.60
2017-08-23T06:00:42.768Z,69.60
2017-08-23T06:03:25.724Z,69.60
2017-08-23T06:05:53.281Z,69.60
2017-08-23T06:08:20.796Z,69.40
2017-08-23T06:10:49.141Z,69.70
2017-08-23T06:13:16.683Z,69.30
2017-08-23T06:15:44.634Z,69.20
2017-08-23T06:18:12.238Z,69.30
2017-08-23T06:20:39.774Z,69.20
2017-08-23T06:23:07.339Z,69.20
2017-08-23T06:25:34.878Z,69.20
2017-08-23T06:28:02.706Z,69.10
2017-08-23T06:30:30.241Z,68.90
2017-08-23T06:32:57.821Z,68.80
2017-08-23T06:35:25.412Z,68.60
2017-08-23T06:37:52.951Z,68.50
2017-08-23T06:40:20.789Z,68.20
2017-08-23T06:42:48.334Z,68.30
2017-08-23T06:45:15.840Z,67.90
2017-08-23T06:47:43.432Z,67.90
2017-08-23T06:50:10.957Z,67.80
2017-08-23T06:52:38.901Z,67.50
2017-08-23T06:55:06.471Z,67.40
2017-08-23T06:57:34.024Z,66.90
2017-08-23T07:00:01.584Z,66.70
2017-08-23T07:02:29.133Z,66.30
2017-08-23T07:04:57.097Z,66.10
2017-08-23T07:07:24.622Z,65.90
2017-08-23T07:09:52.131Z,65.80
2017-08-23T07:12:19.749Z,65.60
2017-08-23T07:14:47.260Z,65.60
2017-08-23T07:17:15.126Z,65.40
2017-08-23T07:19:42.672Z,65.10
2017-08-23T07:22:10.242Z,65.00
2017-08-23T07:24:37.783Z,64.90
2017-08-23T07:27:05.334Z,64.60
2017-08-23T07:29:33.211Z,64.40
2017-08-23T07:32:00.750Z,64.20
2017-08-23T07:34:28.296Z,63.90
2017-08-23T07:36:55.848Z,63.60
2017-08-23T07:39:23.383Z,63.20
2017-08-23T07:41:51.208Z,62.80
2017-08-23T07:44:18.754Z,62.50
2017-08-23T07:46:46.289Z,62.20
2017-08-23T07:49:13.870Z,62.80
2017-08-23T07:51:41.404Z,61.90
2017-08-23T07:54:09.339Z,61.50
2017-08-23T07:56:36.904Z,61.20
2017-08-23T07:59:04.474Z,61.50
2017-08-23T08:01:32.039Z,60.40
2017-08-23T08:03:59.580Z,60.10
2017-08-23T08:06:27.454Z,59.80
2017-08-23T08:08:54.981Z,59.40
2017-08-23T08:11:22.523Z,59.20
2017-08-23T08:13:50.087Z,58.90
2017-08-23T08:16:17.620Z,58.40
2017-08-23T08:18:45.578Z,58.00
2017-08-23T08:21:13.116Z,57.50
2017-08-23T08:23:40.661Z,57.30
2017-08-23T08:26:08.217Z,57.10
2017-08-23T08:28:35.788Z,56.80
2017-08-23T08:31:03.615Z,56.80
2017-08-23T08:33:31.159Z,56.50
2017-08-23T08:35:58.693Z,56.30
2017-08-23T08:38:26.234Z,55.90
2017-08-23T08:40:53.765Z,55.30
2017-08-23T08:43:21.689Z,55.00
2017-08-23T08:45:49.211Z,54.60
2017-08-23T08:48:16.767Z,54.00
2017-08-23T08:50:44.325Z,53.70
2017-08-23T08:53:11.879Z,53.70
2017-08-23T08:55:39.810Z,53.40
2017-08-23T08:58:26.821Z,52.90
2017-08-23T09:00:54.761Z,53.00
2017-08-23T09:03:22.297Z,52.60
2017-08-23T09:05:49.845Z,52.20
2017-08-23T09:08:17.435Z,52.10
2017-08-23T09:10:44.971Z,51.80
2017-08-23T09:13:12.780Z,51.80
2017-08-23T09:15:40.321Z,51.70
2017-08-23T09:18:07.849Z,51.40
2017-08-23T09:20:35.430Z,50.80
2017-08-23T09:23:02.968Z,50.40
2017-08-23T09:25:30.839Z,49.80
2017-08-23T09:27:58.373Z,49.60
2017-08-23T09:30:25.947Z,49.00
2017-08-23T09:32:53.503Z,48.90
2017-08-23T09:35:21.033Z,49.20
2017-08-23T09:37:48.970Z,48.70
2017-08-23T09:40:16.506Z,48.60
2017-08-23T09:42:44.103Z,48.90
2017-08-23T09:45:11.725Z,48.10
2017-08-23T09:47:39.258Z,48.00
2017-08-23T09:50:07.118Z,47.90
2017-08-23T09:52:34.651Z,47.60
2017-08-23T09:55:02.223Z,47.50
2017-08-23T09:57:29.785Z,47.30
2017-08-23T09:59:57.298Z,47.10
2017-08-23T10:02:25.174Z,47.10
2017-08-23T10:04:52.674Z,46.90
2017-08-23T10:07:20.225Z,46.60
2017-08-23T10:09:47.787Z,46.20
2017-08-23T10:12:15.322Z,45.80
2017-08-23T10:14:43.136Z,45.70
2017-08-23T10:17:10.679Z,45.40
2017-08-23T10:19:38.209Z,45.00
2017-08-23T10:22:05.796Z,44.80
2017-08-23T10:24:33.332Z,44.80
2017-08-23T10:27:01.234Z,44.90
2017-08-23T10:29:28.795Z,44.90
2017-08-23T10:31:56.313Z,44.80
2017-08-23T10:34:23.915Z,44.50
2017-08-23T10:36:51.459Z,44.20
2017-08-23T10:39:19.318Z,43.60
2017-08-23T10:41:46.858Z,43.20
2017-08-23T10:44:14.433Z,43.20
2017-08-23T10:46:41.991Z,43.70
2017-08-23T10:49:09.525Z,43.80
2017-08-23T10:51:37.387Z,43.80
2017-08-23T10:54:04.925Z,43.40
2017-08-23T10:56:32.463Z,43.50
2017-08-23T10:59:00.039Z,43.30
2017-08-23T11:01:27.583Z,43.30
2017-08-23T11:03:55.556Z,43.20
2017-08-23T11:06:23.067Z,43.20
2017-08-23T11:08:50.645Z,43.00
2017-08-23T11:11:18.239Z,42.80
2017-08-23T11:13:45.752Z,43.00
2017-08-23T11:16:13.610Z,43.20
2017-08-23T11:18:41.192Z,43.30
2017-08-23T11:21:08.752Z,43.30
2017-08-23T11:23:36.321Z,42.90
2017-08-23T11:26:04.294Z,42.60
2017-08-23T11:28:32.107Z,42.60
2017-08-23T11:30:59.659Z,42.40
2017-08-23T11:33:27.180Z,42.20
2017-08-23T11:35:54.763Z,42.00
2017-08-23T11:38:22.650Z,42.10
2017-08-23T11:40:50.482Z,41.60
2017-08-23T11:43:18.023Z,40.90
2017-08-23T11:45:46.334Z,38.90
2017-08-23T11:48:13.901Z,38.80
2017-08-23T11:50:41.442Z,38.10
2017-08-23T11:53:09.297Z,37.10
2017-08-23T11:55:36.840Z,36.30
2017-08-23T11:58:04.374Z,35.30
2017-08-23T12:00:31.952Z,34.40
2017-08-23T12:02:59.487Z,33.60
2017-08-23T12:05:27.445Z,32.70
2017-08-23T12:07:54.990Z,32.00
2017-08-23T12:10:22.824Z,31.60
2017-08-23T12:12:50.382Z,30.70
2017-08-23T12:15:17.936Z,29.90
2017-08-23T12:17:45.880Z,29.30
2017-08-23T12:20:13.417Z,29.00
2017-08-23T12:22:40.975Z,28.50
2017-08-23T12:25:08.568Z,28.10
2017-08-23T12:27:36.137Z,27.40
2017-08-23T12:30:04.008Z,27.30
2017-08-23T12:32:31.535Z,26.80
2017-08-23T12:34:59.131Z,26.70
2017-08-23T12:37:26.693Z,26.70
2017-08-23T12:39:54.251Z,26.40
2017-08-23T12:42:22.128Z,26.30
2017-08-23T12:44:49.664Z,26.30
2017-08-23T12:47:17.598Z,26.20
2017-08-23T12:49:45.152Z,26.00
2017-08-23T12:52:12.695Z,25.70
2017-08-23T12:54:40.521Z,25.40
2017-08-23T12:57:08.067Z,25.10
2017-08-23T12:59:35.614Z,24.80
2017-08-23T13:02:03.206Z,24.90
2017-08-23T13:04:30.775Z,24.70
2017-08-23T13:06:58.707Z,24.40
2017-08-23T13:09:26.234Z,24.40
2017-08-23T13:11:53.774Z,24.50
2017-08-23T13:14:21.337Z,24.50
2017-08-23T13:19:38.329Z,24.10
2017-08-23T13:22:05.869Z,24.10
2017-08-23T13:24:33.419Z,23.90
2017-08-23T13:27:01.006Z,23.80
2017-08-23T13:29:28.536Z,23.70
2017-08-23T13:31:56.399Z,23.70
2017-08-23T13:34:23.956Z,23.60
2017-08-23T13:36:51.503Z,23.50
2017-08-23T13:39:19.074Z,23.80
2017-08-23T13:41:46.603Z,23.70
2017-08-23T13:44:14.464Z,23.80
2017-08-23T13:46:42.015Z,23.80
2017-08-23T13:49:09.555Z,23.90
2017-08-23T13:51:37.105Z,24.00
2017-08-23T13:54:04.678Z,23.70
2017-08-23T13:56:33.076Z,23.60
2017-08-23T13:59:00.620Z,23.50
2017-08-23T14:01:29.074Z,23.20
2017-08-23T14:03:56.710Z,23.20
2017-08-23T14:06:24.254Z,23.10
2017-08-23T14:08:52.104Z,23.30
2017-08-23T14:11:19.653Z,23.10
2017-08-23T14:13:47.244Z,23.10
2017-08-23T14:16:14.810Z,22.90
2017-08-23T14:18:42.369Z,22.90
2017-08-23T14:21:10.230Z,23.20
2017-08-23T14:23:38.254Z,23.30
2017-08-23T14:26:05.867Z,23.30
2017-08-23T14:28:33.424Z,23.20
2017-08-23T14:31:00.974Z,23.10
2017-08-23T14:33:28.823Z,23.00
2017-08-23T14:35:56.352Z,22.70
2017-08-23T14:38:23.948Z,22.90
2017-08-23T14:40:51.534Z,23.00
2017-08-23T14:43:19.047Z,23.10
2017-08-23T14:45:46.860Z,23.00
2017-08-23T14:48:14.418Z,23.10
2017-08-23T14:50:41.958Z,23.20
2017-08-23T14:53:09.534Z,23.20
2017-08-23T14:55:37.098Z,23.00
2017-08-23T14:58:04.969Z,23.10
2017-08-23T15:00:32.534Z,23.00
2017-08-23T15:03:00.066Z,22.70
2017-08-23T15:05:27.671Z,22.80
2017-08-23T15:07:55.245Z,23.00
2017-08-23T15:10:23.077Z,23.10
2017-08-23T15:12:50.644Z,23.20
2017-08-23T15:15:18.187Z,23.10
2017-08-23T15:17:45.743Z,23.00
2017-08-23T15:20:13.283Z,23.00
2017-08-23T15:22:41.211Z,23.30
2017-08-23T15:25:08.764Z,23.20
2017-08-23T15:27:36.324Z,23.20
2017-08-23T15:30:03.928Z,23.30
2017-08-23T15:32:31.456Z,23.20
2017-08-23T15:35:03.926Z,23.20
2017-08-23T15:37:31.486Z,23.50
2017-08-23T15:39:59.073Z,23.70
2017-08-23T15:42:26.644Z,23.90
2017-08-23T15:44:54.182Z,24.10
2017-08-23T15:47:22.257Z,24.30
2017-08-23T15:49:49.849Z,24.40
2017-08-23T15:52:17.382Z,24.40
2017-08-23T15:54:44.946Z,24.50
2017-08-23T15:57:12.483Z,24.60
2017-08-23T15:59:40.309Z,24.70
2017-08-23T16:02:07.834Z,24.60
2017-08-23T16:04:35.364Z,24.60
2017-08-23T16:07:03.766Z,24.50
2017-08-23T16:09:31.318Z,24.50
2017-08-23T16:11:59.149Z,24.60
2017-08-23T16:14:26.664Z,24.60
2017-08-23T16:16:54.195Z,24.70
2017-08-23T16:19:21.803Z,24.80
2017-08-23T16:21:49.327Z,24.80
2017-08-23T16:24:17.133Z,24.80
2017-08-23T16:26:44.702Z,24.80
2017-08-23T16:29:12.266Z,24.90
2017-08-23T16:31:39.852Z,25.10
2017-08-23T16:34:07.400Z,25.00
2017-08-23T16:36:35.238Z,25.20
2017-08-23T16:39:02.770Z,25.40
2017-08-23T16:41:30.298Z,25.50
2017-08-23T16:43:57.888Z,25.80
2017-08-23T16:46:26.184Z,26.30
2017-08-23T16:48:54.021Z,26.20
2017-08-23T16:51:21.564Z,26.40
2017-08-23T16:53:49.096Z,26.40
2017-08-23T16:56:16.659Z,26.60
2017-08-23T16:58:44.195Z,27.00
2017-08-23T17:01:12.206Z,27.50
2017-08-23T17:03:39.744Z,27.70
2017-08-23T17:06:07.268Z,28.10
2017-08-23T17:08:34.842Z,28.60
2017-08-23T17:11:02.367Z,28.80
2017-08-23T17:13:30.340Z,28.90
2017-08-23T17:15:57.882Z,29.20
2017-08-23T17:18:25.408Z,29.60
2017-08-23T17:20:53.001Z,29.70
2017-08-23T17:23:21.329Z,29.80
2017-08-23T17:25:49.224Z,30.10
2017-08-23T17:28:16.765Z,30.50
2017-08-23T17:30:44.310Z,31.00
2017-08-23T17:33:11.913Z,31.10
2017-08-23T17:35:40.038Z,31.30
2017-08-23T17:38:07.619Z,31.60
2017-08-23T17:40:35.168Z,31.90
2017-08-23T17:43:03.026Z,32.30
2017-08-23T17:45:47.005Z,32.70
2017-08-23T17:48:14.886Z,33.30
2017-08-23T17:50:42.435Z,33.60
2017-08-23T17:53:10.000Z,34.40
2017-08-23T17:55:37.541Z,35.30
2017-08-23T17:58:05.078Z,35.90
2017-08-23T18:00:33.700Z,36.60
2017-08-23T18:03:01.230Z,36.70
2017-08-23T18:05:29.515Z,37.30
2017-08-23T18:07:57.091Z,37.30
2017-08-23T18:10:24.651Z,37.60
2017-08-23T18:12:52.583Z,38.10
2017-08-23T18:15:20.198Z,38.60
2017-08-23T18:17:47.728Z,38.90
2017-08-23T18:20:15.316Z,39.30
2017-08-23T18:22:42.846Z,39.80
2017-08-23T18:25:11.783Z,40.20
2017-08-23T18:27:39.326Z,40.70
2017-08-23T18:30:06.904Z,41.00
2017-08-23T18:32:34.490Z,41.50
2017-08-23T18:35:02.033Z,41.80
2017-08-23T18:37:30.657Z,42.40
2017-08-23T18:39:58.201Z,42.50
2017-08-23T18:42:25.735Z,42.80
2017-08-23T18:44:53.326Z,43.00
2017-08-23T18:47:20.873Z,43.20
2017-08-23T18:49:49.674Z,43.60
2017-08-23T18:52:17.220Z,43.40
2017-08-23T18:54:44.776Z,44.40
2017-08-23T18:57:13.348Z,44.80
2017-08-23T18:59:43.983Z,45.10
2017-08-23T19:02:24.356Z,45.60
2017-08-23T19:04:51.904Z,45.90
2017-08-23T19:07:31.139Z,45.90
2017-08-23T19:09:58.670Z,46.10
2017-08-23T19:12:33.727Z,46.20
2017-08-23T19:15:02.216Z,46.50
2017-08-23T19:17:29.783Z,46.70
2017-08-23T19:19:57.353Z,47.10
2017-08-23T19:22:24.975Z,47.40
2017-08-23T19:24:52.842Z,48.00
2017-08-23T19:27:23.799Z,47.90
2017-08-23T19:29:51.346Z,48.10
2017-08-23T19:32:18.914Z,48.40
2017-08-23T19:34:46.521Z,48.50
2017-08-23T19:37:14.406Z,48.80
2017-08-23T19:39:42.015Z,48.90
2017-08-23T19:42:15.584Z,49.10
2017-08-23T19:44:43.130Z,49.20
2017-08-23T19:47:10.713Z,49.40
2017-08-23T19:49:38.301Z,49.50
2017-08-23T19:52:05.849Z,49.70
2017-08-23T19:54:33.796Z,49.80
2017-08-23T19:57:01.335Z,50.00
2017-08-23T19:59:28.917Z,50.10
2017-08-23T20:01:56.533Z,50.20
2017-08-23T20:04:24.107Z,50.40
2017-08-23T20:06:51.974Z,50.50
2017-08-23T20:09:19.544Z,50.50
2017-08-23T20:11:47.089Z,50.50
2017-08-23T20:14:14.690Z,50.80
2017-08-23T20:16:42.247Z,51.00
2017-08-23T20:19:15.803Z,51.10
2017-08-23T20:21:43.366Z,51.20
2017-08-23T20:24:11.294Z,51.30
2017-08-23T20:26:44.119Z,51.50
2017-08-23T20:29:11.657Z,51.60
2017-08-23T20:31:39.609Z,51.70
2017-08-23T20:34:07.155Z,52.00
2017-08-23T20:36:34.740Z,52.00
2017-08-23T20:39:09.555Z,52.70
2017-08-23T20:41:37.113Z,52.20
2017-08-23T20:44:04.961Z,52.40
2017-08-23T20:46:32.500Z,52.60
2017-08-23T20:49:00.064Z,53.40
2017-08-23T20:51:27.659Z,52.90
2017-08-23T20:53:55.217Z,53.10
2017-08-23T20:56:23.088Z,53.30
2017-08-23T20:58:50.628Z,53.30
2017-08-23T21:01:18.161Z,53.50
2017-08-23T21:03:45.724Z,53.40
2017-08-23T21:06:13.265Z,53.80
2017-08-23T21:08:41.149Z,54.00
2017-08-23T21:11:08.716Z,54.20
2017-08-23T21:13:37.224Z,54.40
2017-08-23T21:16:04.860Z,54.40
2017-08-23T21:18:32.411Z,54.60
2017-08-23T21:21:00.291Z,54.70
2017-08-23T21:23:28.851Z,54.80
2017-08-23T21:25:56.395Z,54.90
2017-08-23T21:28:23.962Z,55.00
2017-08-23T21:30:55.789Z,55.20
2017-08-23T21:33:23.681Z,56.00
2017-08-23T21:35:51.220Z,55.50
2017-08-23T21:38:18.770Z,55.70
2017-08-23T21:40:46.331Z,55.90
2017-08-23T21:43:13.875Z,56.00
2017-08-23T21:45:41.711Z,56.00
2017-08-23T21:48:09.242Z,56.20
2017-08-23T21:50:36.780Z,56.20
2017-08-23T21:53:04.337Z,56.30
2017-08-23T21:55:32.818Z,56.50
2017-08-23T21:58:00.762Z,56.70
2017-08-23T22:00:28.319Z,56.70
2017-08-23T22:02:55.862Z,56.90
2017-08-23T22:05:23.423Z,56.90
2017-08-23T22:07:50.985Z,57.10
2017-08-23T22:10:18.827Z,57.20
2017-08-23T22:12:46.378Z,57.30
2017-08-23T22:15:18.713Z,57.50
2017-08-23T22:17:46.231Z,57.60
2017-08-23T22:20:13.811Z,57.90
2017-08-23T22:22:41.385Z,58.10
2017-08-23T22:25:23.797Z,58.20
2017-08-23T22:27:51.331Z,58.30
2017-08-23T22:30:18.905Z,58.40
2017-08-23T22:32:46.750Z,58.60
2017-08-23T22:35:14.297Z,58.70
2017-08-23T22:37:41.864Z,58.90
2017-08-23T22:40:10.315Z,59.20
2017-08-23T22:42:37.885Z,59.20
2017-08-23T22:45:05.761Z,59.50
2017-08-23T22:47:41.168Z,59.50
2017-08-23T22:50:09.121Z,59.60
2017-08-23T22:52:36.669Z,59.80
2017-08-23T22:55:06.114Z,60.00
2017-08-23T22:57:33.653Z,60.00
2017-08-23T23:00:01.186Z,60.20
2017-08-23T23:02:29.009Z,60.30
2017-08-23T23:04:56.536Z,60.50
2017-08-23T23:07:24.078Z,60.70
2017-08-23T23:09:51.634Z,60.80
2017-08-23T23:12:19.162Z,61.00
2017-08-23T23:14:46.972Z,61.10
2017-08-23T23:17:14.494Z,61.20
2017-08-23T23:19:42.023Z,62.10
2017-08-23T23:22:09.590Z,61.60
2017-08-23T23:24:37.134Z,61.80
2017-08-23T23:27:04.991Z,61.90
2017-08-23T23:29:32.532Z,62.00
2017-08-23T23:32:00.063Z,61.90
2017-08-23T23:34:27.639Z,62.10
2017-08-23T23:36:55.179Z,62.40
2017-08-23T23:39:23.023Z,62.50
2017-08-23T23:41:50.549Z,62.70
2017-08-23T23:44:18.084Z,62.80
2017-08-23T23:46:45.656Z,62.90
2017-08-23T23:49:13.180Z,63.10
2017-08-23T23:51:41.011Z,63.20
2017-08-23T23:54:08.514Z,63.30
2017-08-23T23:56:36.108Z,63.40
2017-08-23T23:59:03.662Z,63.60
